sensor_id;sensor_type;location;lat;lon;timestamp;P1;durP1;ratioP1;P2;durP2;ratioP2
25649;SDS011;13505;45.196;5.696;2023-01-20T05:03:30;9.93;;;4.53;;
25649;SDS011;13505;45.196;5.696;2023-01-20T05:08:20;9.98;;;4.43;;
25649;SDS011;13505;45.196;5.696;2023-01-20T05:13:11;7.80;;;4.15;;
25649;SDS011;13505;45.196;5.696;2023-01-20T05:18:01;10.68;;;4.60;;
25649;SDS011;13505;45.196;5.696;2023-01-20T05:22:52;8.30;;;4.40;;
25649;SDS011;13505;45.196;5.696;2023-01-20T05:27:42;8.95;;;4.50;;
25649;SDS011;13505;45.196;5.696;2023-01-20T05:32:34;9.43;;;4.30;;
25649;SDS011;13505;45.196;5.696;2023-01-20T05:37:24;8.13;;;4.50;;
25649;SDS011;13505;45.196;5.696;2023-01-20T05:42:14;7.57;;;4.22;;
25649;SDS011;13505;45.196;5.696;2023-01-20T05:47:05;6.97;;;4.07;;
25649;SDS011;13505;45.196;5.696;2023-01-20T05:51:55;10.48;;;4.40;;
25649;SDS011;13505;45.196;5.696;2023-01-20T05:56:46;10.10;;;4.30;;
25649;SDS011;13505;45.196;5.696;2023-01-20T06:01:38;8.05;;;4.30;;
25649;SDS011;13505;45.196;5.696;2023-01-20T06:06:29;10.48;;;4.32;;
25649;SDS011;13505;45.196;5.696;2023-01-20T06:11:19;12.55;;;4.40;;
25649;SDS011;13505;45.196;5.696;2023-01-20T06:16:10;9.27;;;5.10;;
25649;SDS011;13505;45.196;5.696;2023-01-20T06:21:00;8.38;;;4.38;;
25649;SDS011;13505;45.196;5.696;2023-01-20T06:26:01;10.25;;;4.18;;
25649;SDS011;13505;45.196;5.696;2023-01-20T06:31:00;8.93;;;3.15;;
25649;SDS011;13505;45.196;5.696;2023-01-20T06:35:52;12.10;;;4.10;;
25649;SDS011;13505;45.196;5.696;2023-01-20T06:40:44;5.55;;;3.15;;
25649;SDS011;13505;45.196;5.696;2023-01-20T06:45:34;7.13;;;3.60;;
25649;SDS011;13505;45.196;5.696;2023-01-20T06:50:27;6.85;;;3.50;;
25649;SDS011;13505;45.196;5.696;2023-01-20T06:55:17;6.40;;;2.97;;
25649;SDS011;13505;45.196;5.696;2023-01-20T07:00:08;6.78;;;3.78;;
25649;SDS011;13505;45.196;5.696;2023-01-20T07:04:59;7.90;;;3.42;;
25649;SDS011;13505;45.196;5.696;2023-01-20T07:09:52;13.10;;;5.22;;
25649;SDS011;13505;45.196;5.696;2023-01-20T07:14:43;7.93;;;4.80;;
25649;SDS011;13505;45.196;5.696;2023-01-20T07:19:33;13.88;;;5.40;;
25649;SDS011;13505;45.196;5.696;2023-01-20T07:24:24;10.38;;;4.72;;
25649;SDS011;13505;45.196;5.696;2023-01-20T07:29:14;9.88;;;4.85;;
25649;SDS011;13505;45.196;5.696;2023-01-20T07:34:04;8.55;;;4.18;;
25649;SDS011;13505;45.196;5.696;2023-01-20T07:38:55;7.47;;;4.28;;
25649;SDS011;13505;45.196;5.696;2023-01-20T07:43:46;8.52;;;4.90;;
25649;SDS011;13505;45.196;5.696;2023-01-20T07:48:39;12.60;;;5.75;;
25649;SDS011;13505;45.196;5.696;2023-01-20T07:53:31;10.05;;;5.50;;
25649;SDS011;13505;45.196;5.696;2023-01-20T07:58:22;12.75;;;6.53;;
25649;SDS011;13505;45.196;5.696;2023-01-20T08:03:13;11.63;;;4.65;;
25649;SDS011;13505;45.196;5.696;2023-01-20T08:08:04;8.65;;;4.43;;
25649;SDS011;13505;45.196;5.696;2023-01-20T08:12:54;10.77;;;4.55;;
25649;SDS011;13505;45.196;5.696;2023-01-20T08:17:45;8.80;;;4.13;;
25649;SDS011;13505;45.196;5.696;2023-01-20T08:22:35;9.82;;;4.00;;
25649;SDS011;13505;45.196;5.696;2023-01-20T08:27:25;8.43;;;4.07;;
25649;SDS011;13505;45.196;5.696;2023-01-20T08:32:16;12.95;;;6.40;;
25649;SDS011;13505;45.196;5.696;2023-01-20T08:37:06;7.38;;;4.13;;
25649;SDS011;13505;45.196;5.696;2023-01-20T08:41:56;9.25;;;5.07;;
25649;SDS011;13505;45.196;5.696;2023-01-20T08:46:47;11.10;;;5.80;;
25649;SDS011;13505;45.196;5.696;2023-01-20T08:51:42;10.35;;;5.00;;
25649;SDS011;13505;45.196;5.696;2023-01-20T08:56:33;8.50;;;5.20;;
25649;SDS011;13505;45.196;5.696;2023-01-20T09:01:26;10.65;;;5.18;;
25649;SDS011;13505;45.196;5.696;2023-01-20T09:06:18;9.70;;;5.45;;
25649;SDS011;13505;45.196;5.696;2023-01-20T09:11:12;31.40;;;13.88;;
25649;SDS011;13505;45.196;5.696;2023-01-20T09:16:04;11.50;;;5.10;;
25649;SDS011;13505;45.196;5.696;2023-01-20T09:20:58;10.73;;;5.35;;
25649;SDS011;13505;45.196;5.696;2023-01-20T09:25:51;12.82;;;5.47;;
25649;SDS011;13505;45.196;5.696;2023-01-20T09:30:41;15.13;;;5.80;;
25649;SDS011;13505;45.196;5.696;2023-01-20T09:35:32;12.93;;;6.03;;
25649;SDS011;13505;45.196;5.696;2023-01-20T09:40:24;11.57;;;4.32;;
25649;SDS011;13505;45.196;5.696;2023-01-20T09:45:46;14.23;;;5.07;;
25649;SDS011;13505;45.196;5.696;2023-01-20T09:50:45;9.30;;;5.00;;
25649;SDS011;13505;45.196;5.696;2023-01-20T09:56:07;12.55;;;4.03;;
25649;SDS011;13505;45.196;5.696;2023-01-20T10:01:12;7.40;;;4.07;;
25649;SDS011;13505;45.196;5.696;2023-01-20T10:06:09;7.72;;;4.70;;
25649;SDS011;13505;45.196;5.696;2023-01-20T10:11:07;11.13;;;5.30;;
25649;SDS011;13505;45.196;5.696;2023-01-20T10:16:04;9.73;;;4.78;;
25649;SDS011;13505;45.196;5.696;2023-01-20T10:21:08;11.18;;;4.93;;
25649;SDS011;13505;45.196;5.696;2023-01-20T10:26:14;12.20;;;4.68;;
25649;SDS011;13505;45.196;5.696;2023-01-20T10:31:11;9.82;;;5.68;;
25649;SDS011;13505;45.196;5.696;2023-01-20T10:36:03;12.68;;;5.68;;
25649;SDS011;13505;45.196;5.696;2023-01-20T10:41:22;9.60;;;4.57;;
25649;SDS011;13505;45.196;5.696;2023-01-20T11:01:27;14.63;;;5.45;;
25649;SDS011;13505;45.196;5.696;2023-01-20T11:06:20;13.88;;;6.38;;
25649;SDS011;13505;45.196;5.696;2023-01-20T11:11:17;9.70;;;5.63;;
25649;SDS011;13505;45.196;5.696;2023-01-20T11:16:26;13.52;;;5.30;;
25649;SDS011;13505;45.196;5.696;2023-01-20T11:21:21;9.75;;;5.10;;
25649;SDS011;13505;45.196;5.696;2023-01-20T11:31:16;19.55;;;5.93;;
25649;SDS011;13505;45.196;5.696;2023-01-20T11:36:17;13.30;;;5.78;;
25649;SDS011;13505;45.196;5.696;2023-01-20T11:41:17;14.35;;;6.05;;
25649;SDS011;13505;45.196;5.696;2023-01-20T11:46:10;10.60;;;5.80;;
25649;SDS011;13505;45.196;5.696;2023-01-20T11:51:17;15.80;;;6.68;;
25649;SDS011;13505;45.196;5.696;2023-01-20T11:56:19;14.15;;;5.65;;
25649;SDS011;13505;45.196;5.696;2023-01-20T12:01:18;12.45;;;6.10;;
25649;SDS011;13505;45.196;5.696;2023-01-20T12:06:22;11.53;;;6.00;;
25649;SDS011;13505;45.196;5.696;2023-01-20T12:12:00;7.50;;;3.58;;
25649;SDS011;13505;45.196;5.696;2023-01-20T12:21:49;5.15;;;2.95;;
25649;SDS011;13505;45.196;5.696;2023-01-20T12:26:41;5.68;;;2.47;;
25649;SDS011;13505;45.196;5.696;2023-01-20T12:31:32;8.35;;;3.20;;
25649;SDS011;13505;45.196;5.696;2023-01-20T12:36:26;7.68;;;3.40;;
25649;SDS011;13505;45.196;5.696;2023-01-20T12:41:33;5.55;;;2.80;;
25649;SDS011;13505;45.196;5.696;2023-01-20T12:46:40;6.05;;;3.17;;
25649;SDS011;13505;45.196;5.696;2023-01-20T12:51:41;4.85;;;2.70;;
25649;SDS011;13505;45.196;5.696;2023-01-20T13:01:43;5.27;;;2.80;;
25649;SDS011;13505;45.196;5.696;2023-01-20T13:07:00;3.80;;;2.53;;
25649;SDS011;13505;45.196;5.696;2023-01-20T13:17:02;5.07;;;3.03;;
25649;SDS011;13505;45.196;5.696;2023-01-20T13:22:07;5.25;;;3.08;;
25649;SDS011;13505;45.196;5.696;2023-01-20T13:27:01;6.65;;;2.97;;
25649;SDS011;13505;45.196;5.696;2023-01-20T13:31:52;4.18;;;2.70;;
25649;SDS011;13505;45.196;5.696;2023-01-20T13:36:55;5.50;;;3.00;;
25649;SDS011;13505;45.196;5.696;2023-01-20T13:46:43;8.65;;;3.03;;
25649;SDS011;13505;45.196;5.696;2023-01-20T13:56:28;7.80;;;3.20;;
25649;SDS011;13505;45.196;5.696;2023-01-20T14:01:21;5.47;;;2.80;;
25649;SDS011;13505;45.196;5.696;2023-01-20T14:11:13;4.90;;;2.83;;
25649;SDS011;13505;45.196;5.696;2023-01-20T14:16:21;7.63;;;2.70;;
25649;SDS011;13505;45.196;5.696;2023-01-20T14:21:16;6.53;;;2.53;;
25649;SDS011;13505;45.196;5.696;2023-01-20T14:26:11;4.18;;;2.70;;
25649;SDS011;13505;45.196;5.696;2023-01-20T14:31:13;5.40;;;2.90;;
25649;SDS011;13505;45.196;5.696;2023-01-20T14:36:05;4.28;;;2.50;;
25649;SDS011;13505;45.196;5.696;2023-01-20T14:40:56;6.78;;;2.85;;
25649;SDS011;13505;45.196;5.696;2023-01-20T14:45:47;4.15;;;2.58;;
25649;SDS011;13505;45.196;5.696;2023-01-20T14:50:48;3.95;;;2.63;;
25649;SDS011;13505;45.196;5.696;2023-01-20T14:55:41;5.93;;;3.30;;
25649;SDS011;13505;45.196;5.696;2023-01-20T15:00:45;5.22;;;2.83;;
25649;SDS011;13505;45.196;5.696;2023-01-20T15:05:39;8.32;;;3.72;;
25649;SDS011;13505;45.196;5.696;2023-01-20T15:10:31;7.85;;;3.33;;
25649;SDS011;13505;45.196;5.696;2023-01-20T15:15:24;7.28;;;3.15;;
25649;SDS011;13505;45.196;5.696;2023-01-20T15:20:29;7.85;;;4.20;;
25649;SDS011;13505;45.196;5.696;2023-01-20T15:25:23;9.73;;;4.20;;
25649;SDS011;13505;45.196;5.696;2023-01-20T15:30:18;8.43;;;4.20;;
25649;SDS011;13505;45.196;5.696;2023-01-20T15:35:14;6.63;;;4.00;;
25649;SDS011;13505;45.196;5.696;2023-01-20T15:40:08;10.38;;;4.32;;
25649;SDS011;13505;45.196;5.696;2023-01-20T15:45:03;9.02;;;4.78;;
25649;SDS011;13505;45.196;5.696;2023-01-20T15:49:53;8.60;;;5.07;;
25649;SDS011;13505;45.196;5.696;2023-01-20T15:54:44;8.77;;;4.47;;
25649;SDS011;13505;45.196;5.696;2023-01-20T15:59:34;7.75;;;4.30;;
25649;SDS011;13505;45.196;5.696;2023-01-20T16:04:24;13.30;;;4.95;;
25649;SDS011;13505;45.196;5.696;2023-01-20T16:09:24;12.07;;;4.97;;
25649;SDS011;13505;45.196;5.696;2023-01-20T16:14:16;9.25;;;4.93;;
25649;SDS011;13505;45.196;5.696;2023-01-20T16:19:08;14.75;;;5.90;;
25649;SDS011;13505;45.196;5.696;2023-01-20T16:24:01;10.23;;;5.20;;
25649;SDS011;13505;45.196;5.696;2023-01-20T16:28:53;10.48;;;5.50;;
25649;SDS011;13505;45.196;5.696;2023-01-20T16:33:45;9.35;;;5.10;;
25649;SDS011;13505;45.196;5.696;2023-01-20T16:38:35;13.23;;;5.72;;
25649;SDS011;13505;45.196;5.696;2023-01-20T16:43:26;12.15;;;5.72;;
25649;SDS011;13505;45.196;5.696;2023-01-20T16:48:16;10.65;;;5.78;;
25649;SDS011;13505;45.196;5.696;2023-01-20T16:53:07;12.95;;;7.10;;
25649;SDS011;13505;45.196;5.696;2023-01-20T16:57:59;14.35;;;6.85;;
25649;SDS011;13505;45.196;5.696;2023-01-20T17:02:50;12.65;;;6.90;;
25649;SDS011;13505;45.196;5.696;2023-01-20T17:07:41;13.27;;;7.22;;
25649;SDS011;13505;45.196;5.696;2023-01-20T17:12:31;12.48;;;6.60;;
25649;SDS011;13505;45.196;5.696;2023-01-20T17:17:22;16.38;;;6.90;;
25649;SDS011;13505;45.196;5.696;2023-01-20T17:22:12;12.93;;;7.20;;
25649;SDS011;13505;45.196;5.696;2023-01-20T17:27:05;14.57;;;7.43;;
25649;SDS011;13505;45.196;5.696;2023-01-20T17:31:55;16.58;;;7.55;;
25649;SDS011;13505;45.196;5.696;2023-01-20T17:36:46;12.70;;;6.72;;
25649;SDS011;13505;45.196;5.696;2023-01-20T17:41:37;13.02;;;7.32;;
25649;SDS011;13505;45.196;5.696;2023-01-20T17:46:28;12.73;;;7.47;;
25649;SDS011;13505;45.196;5.696;2023-01-20T17:51:20;16.60;;;8.43;;
25649;SDS011;13505;45.196;5.696;2023-01-20T17:56:13;11.18;;;6.63;;
25649;SDS011;13505;45.196;5.696;2023-01-20T18:01:23;15.05;;;7.78;;
25649;SDS011;13505;45.196;5.696;2023-01-20T18:06:15;14.80;;;7.60;;
25649;SDS011;13505;45.196;5.696;2023-01-20T18:11:08;12.30;;;7.30;;
25649;SDS011;13505;45.196;5.696;2023-01-20T18:16:04;15.52;;;7.00;;
25649;SDS011;13505;45.196;5.696;2023-01-20T18:20:56;12.23;;;6.53;;
25649;SDS011;13505;45.196;5.696;2023-01-20T18:25:56;12.10;;;6.30;;
25649;SDS011;13505;45.196;5.696;2023-01-20T18:30:47;14.93;;;6.97;;
25649;SDS011;13505;45.196;5.696;2023-01-20T18:35:37;16.00;;;7.18;;
25649;SDS011;13505;45.196;5.696;2023-01-20T18:40:28;12.38;;;7.53;;
25649;SDS011;13505;45.196;5.696;2023-01-20T18:45:18;12.05;;;6.30;;
25649;SDS011;13505;45.196;5.696;2023-01-20T18:50:08;12.00;;;5.85;;
25649;SDS011;13505;45.196;5.696;2023-01-20T18:54:59;12.10;;;6.53;;
25649;SDS011;13505;45.196;5.696;2023-01-20T18:59:49;16.17;;;6.32;;
25649;SDS011;13505;45.196;5.696;2023-01-20T19:04:40;13.52;;;6.93;;
25649;SDS011;13505;45.196;5.696;2023-01-20T19:09:30;10.98;;;6.50;;
25649;SDS011;13505;45.196;5.696;2023-01-20T19:14:21;11.50;;;6.43;;
25649;SDS011;13505;45.196;5.696;2023-01-20T19:19:11;11.27;;;6.30;;
25649;SDS011;13505;45.196;5.696;2023-01-20T19:24:03;12.40;;;6.78;;
25649;SDS011;13505;45.196;5.696;2023-01-20T19:28:58;12.20;;;6.43;;
25649;SDS011;13505;45.196;5.696;2023-01-20T19:33:51;14.88;;;6.40;;
25649;SDS011;13505;45.196;5.696;2023-01-20T19:38:41;12.40;;;6.43;;
25649;SDS011;13505;45.196;5.696;2023-01-20T19:43:33;14.30;;;6.55;;
25649;SDS011;13505;45.196;5.696;2023-01-20T19:48:24;10.80;;;5.70;;
25649;SDS011;13505;45.196;5.696;2023-01-20T19:53:14;14.32;;;7.75;;
25649;SDS011;13505;45.196;5.696;2023-01-20T19:58:04;15.27;;;7.30;;
25649;SDS011;13505;45.196;5.696;2023-01-20T20:02:55;14.90;;;7.38;;
25649;SDS011;13505;45.196;5.696;2023-01-20T20:07:45;15.93;;;7.43;;
25649;SDS011;13505;45.196;5.696;2023-01-20T20:12:35;13.30;;;7.40;;
25649;SDS011;13505;45.196;5.696;2023-01-20T20:17:26;12.52;;;7.32;;
25649;SDS011;13505;45.196;5.696;2023-01-20T20:22:17;21.08;;;7.78;;
25649;SDS011;13505;45.196;5.696;2023-01-20T20:27:07;14.80;;;7.43;;
25649;SDS011;13505;45.196;5.696;2023-01-20T20:31:57;15.40;;;7.15;;
25649;SDS011;13505;45.196;5.696;2023-01-20T20:36:48;8.88;;;4.60;;
25649;SDS011;13505;45.196;5.696;2023-01-20T20:41:38;5.47;;;3.33;;
25649;SDS011;13505;45.196;5.696;2023-01-20T20:46:29;10.07;;;4.93;;
25649;SDS011;13505;45.196;5.696;2023-01-20T20:51:20;12.32;;;5.95;;
25649;SDS011;13505;45.196;5.696;2023-01-20T20:56:13;24.08;;;7.75;;
25649;SDS011;13505;45.196;5.696;2023-01-20T21:01:05;10.95;;;5.15;;
25649;SDS011;13505;45.196;5.696;2023-01-20T21:05:57;8.13;;;4.60;;
25649;SDS011;13505;45.196;5.696;2023-01-20T21:10:48;11.15;;;4.80;;
25649;SDS011;13505;45.196;5.696;2023-01-20T21:15:38;7.95;;;4.55;;
25649;SDS011;13505;45.196;5.696;2023-01-20T21:20:28;12.13;;;5.05;;
25649;SDS011;13505;45.196;5.696;2023-01-20T21:25:20;9.95;;;4.20;;
25649;SDS011;13505;45.196;5.696;2023-01-20T21:30:13;8.20;;;3.97;;
25649;SDS011;13505;45.196;5.696;2023-01-20T21:35:03;8.15;;;4.00;;
25649;SDS011;13505;45.196;5.696;2023-01-20T21:39:54;5.90;;;3.63;;
25649;SDS011;13505;45.196;5.696;2023-01-20T21:44:44;9.32;;;4.05;;
25649;SDS011;13505;45.196;5.696;2023-01-20T21:49:34;7.53;;;3.30;;
25649;SDS011;13505;45.196;5.696;2023-01-20T21:54:43;8.63;;;3.65;;
25649;SDS011;13505;45.196;5.696;2023-01-20T21:59:34;13.23;;;6.38;;
25649;SDS011;13505;45.196;5.696;2023-01-20T22:04:24;17.63;;;9.10;;
25649;SDS011;13505;45.196;5.696;2023-01-20T22:09:14;19.85;;;9.68;;
25649;SDS011;13505;45.196;5.696;2023-01-20T22:14:05;23.15;;;9.82;;
25649;SDS011;13505;45.196;5.696;2023-01-20T22:18:55;17.52;;;9.02;;
25649;SDS011;13505;45.196;5.696;2023-01-20T22:23:46;17.75;;;9.20;;
25649;SDS011;13505;45.196;5.696;2023-01-20T22:28:36;17.17;;;7.97;;
25649;SDS011;13505;45.196;5.696;2023-01-20T22:33:29;18.88;;;8.07;;
25649;SDS011;13505;45.196;5.696;2023-01-20T22:38:20;18.60;;;8.45;;
25649;SDS011;13505;45.196;5.696;2023-01-20T22:43:10;9.75;;;4.68;;
25649;SDS011;13505;45.196;5.696;2023-01-20T22:48:00;9.60;;;4.70;;
25649;SDS011;13505;45.196;5.696;2023-01-20T22:52:51;10.15;;;5.05;;
25649;SDS011;13505;45.196;5.696;2023-01-20T22:57:41;8.18;;;4.60;;
